Time;durP1;ratioP1;P1;durP2;ratioP2;P2;SDS_P1;SDS_P2;PMS_P1;PMS_P2;Temp;Humidity;BMP_temperature;BMP_pressure;BME280_temperature;BME280_humidity;BME280_pressure;Samples;Min_cycle;Max_cycle;Signal;HPM_P1;HPM_P2
2022/06/28 00:01:20;;;;;;;;;;;;;;;25.59;100.00;98262.03;5120671;28;19966;-64
2022/06/28 00:03:47;;;;;;;;;;;;;;;25.42;100.00;98265.84;5118651;28;19924;-65
2022/06/28 00:06:14;;;;;;;;;;;;;;;25.45;100.00;98251.47;5118977;28;19958;-64
2022/06/28 00:08:40;;;;;;;;;;;;;;;25.50;100.00;98245.75;5122043;28;19939;-64
2022/06/28 00:11:06;;;;;;;;;;;;;;;25.53;100.00;98249.75;5122086;28;19934;-65
2022/06/28 00:13:33;;;;;;;;;;;;;;;25.63;100.00;98247.28;5118651;28;19987;-64
2022/06/28 00:16:05;;;;;;;;;;;;;;;25.49;100.00;98244.19;5118267;28;19931;-65
2022/06/28 00:18:32;;;;;;;;;;;;;;;25.46;100.00;98247.59;5121310;28;19996;-64
2022/06/28 00:20:58;;;;;;;;;;;;;;;25.28;100.00;98240.88;5123748;28;19924;-64
2022/06/28 00:23:24;;;;;;;;;;;;;;;25.05;100.00;98234.41;5119904;28;19957;-64
2022/06/28 00:25:51;;;;;;;;;;;;;;;25.14;100.00;98248.69;5118154;28;19924;-64
2022/06/28 00:28:17;;;;;;;;;;;;;;;25.15;100.00;98256.56;5119241;28;20006;-64
2022/06/28 00:30:43;;;;;;;;;;;;;;;25.20;100.00;98258.22;5121721;28;19982;-64
2022/06/28 00:33:12;;;;;;;;;;;;;;;25.17;100.00;98246.06;5121941;28;19934;-64
2022/06/28 00:35:39;;;;;;;;;;;;;;;25.06;100.00;98245.00;5109632;28;19924;-65
2022/06/28 00:38:05;;;;;;;;;;;;;;;25.13;100.00;98253.34;5109354;28;20635;-64
2022/06/28 00:40:32;;;;;;;;;;;;;;;25.08;100.00;98261.81;5109734;28;19979;-63
2022/06/28 00:42:58;;;;;;;;;;;;;;;25.14;100.00;98268.63;5109541;28;19924;-63
2022/06/28 00:45:25;;;;;;;;;;;;;;;25.07;100.00;98284.03;5109348;28;19931;-65
2022/06/28 00:47:52;;;;;;;;;;;;;;;25.17;100.00;98287.06;5109498;28;19925;-64
2022/06/28 00:50:20;;;;;;;;;;;;;;;25.07;100.00;98281.28;5112711;27;19966;-64
2022/06/28 00:53:02;;;;;;;;;;;;;;;25.18;100.00;98279.66;5121686;28;19935;-65
2022/06/28 00:55:29;;;;;;;;;;;;;;;25.08;100.00;98285.63;5118729;28;19983;-64
2022/06/28 00:57:55;;;;;;;;;;;;;;;24.66;100.00;98294.16;5118053;28;19919;-64
2022/06/28 01:00:22;;;;;;;;;;;;;;;24.53;100.00;98305.47;5119219;28;19920;-63
2022/06/28 01:02:48;;;;;;;;;;;;;;;24.68;100.00;98307.47;5103101;28;19959;-64
2022/06/28 01:05:14;;;;;;;;;;;;;;;24.32;100.00;98315.75;5120393;28;19962;-64
2022/06/28 01:07:42;;;;;;;;;;;;;;;24.33;100.00;98309.91;5117920;28;19935;-63
2022/06/28 01:10:10;;;;;;;;;;;;;;;24.47;100.00;98320.50;5117665;28;19951;-63
2022/06/28 01:12:36;;;;;;;;;;;;;;;24.28;100.00;98331.22;5117650;28;19962;-64
2022/06/28 01:15:02;;;;;;;;;;;;;;;24.35;100.00;98324.03;5099542;28;19935;-64
2022/06/28 01:17:29;;;;;;;;;;;;;;;24.24;100.00;98320.16;5120085;28;20004;-63
2022/06/28 01:19:55;;;;;;;;;;;;;;;24.60;100.00;98320.13;5121084;28;19987;-64
2022/06/28 01:22:22;;;;;;;;;;;;;;;24.69;100.00;98315.34;5121950;28;19978;-64
2022/06/28 01:24:50;;;;;;;;;;;;;;;24.77;100.00;98315.53;5120971;28;19995;-64
2022/06/28 01:27:16;;;;;;;;;;;;;;;24.84;100.00;98315.78;5120349;28;19923;-64
2022/06/28 01:29:43;;;;;;;;;;;;;;;24.62;100.00;98319.78;5117469;28;19938;-63
2022/06/28 01:32:09;;;;;;;;;;;;;;;24.39;100.00;98322.19;5117500;28;19960;-64
2022/06/28 01:34:36;;;;;;;;;;;;;;;24.20;100.00;98318.47;5109022;28;19946;-64
2022/06/28 01:37:02;;;;;;;;;;;;;;;24.42;100.00;98324.25;5109103;28;19987;-64
2022/06/28 01:39:28;;;;;;;;;;;;;;;24.52;100.00;98314.78;5109087;28;19926;-64
2022/06/28 01:41:56;;;;;;;;;;;;;;;24.66;100.00;98326.94;5108859;28;19951;-64
2022/06/28 01:44:22;;;;;;;;;;;;;;;24.65;100.00;98322.63;5108874;28;19955;-64
2022/06/28 01:46:49;;;;;;;;;;;;;;;24.64;100.00;98326.50;5109204;28;19924;-64
2022/06/28 01:49:15;;;;;;;;;;;;;;;24.68;100.00;98329.34;5109241;28;19951;-63
2022/06/28 01:51:42;;;;;;;;;;;;;;;24.67;100.00;98334.00;5123426;27;19932;-63
2022/06/28 01:54:08;;;;;;;;;;;;;;;24.43;100.00;98338.69;5121499;28;19935;-63
2022/06/28 01:56:35;;;;;;;;;;;;;;;24.44;100.00;98338.38;5124748;28;19930;-64
2022/06/28 01:59:03;;;;;;;;;;;;;;;24.45;100.00;98337.22;5125016;28;19936;-63
2022/06/28 02:01:29;;;;;;;;;;;;;;;24.54;100.00;98351.53;5121645;28;19924;-64
2022/06/28 02:03:56;;;;;;;;;;;;;;;24.51;100.00;98349.50;5121146;28;19924;-64
2022/06/28 02:06:22;;;;;;;;;;;;;;;24.58;100.00;98341.53;5122594;28;19924;-64
2022/06/28 02:08:48;;;;;;;;;;;;;;;24.66;100.00;98342.53;5124649;28;19955;-64
2022/06/28 02:11:15;;;;;;;;;;;;;;;24.45;100.00;98342.66;5123327;28;19924;-64
2022/06/28 02:13:41;;;;;;;;;;;;;;;24.38;100.00;98342.47;5121099;28;19932;-64
2022/06/28 02:16:09;;;;;;;;;;;;;;;24.46;100.00;98338.00;5120782;28;19924;-63
2022/06/28 02:18:35;;;;;;;;;;;;;;;24.54;100.00;98340.59;5120684;28;19924;-63
2022/06/28 02:21:02;;;;;;;;;;;;;;;24.55;100.00;98338.69;5128864;27;20396;-64
2022/06/28 02:23:28;;;;;;;;;;;;;;;24.16;100.00;98332.00;5121412;28;19930;-63
2022/06/28 02:25:56;;;;;;;;;;;;;;;23.96;100.00;98332.88;5120605;28;19928;-64
2022/06/28 02:28:22;;;;;;;;;;;;;;;23.90;100.00;98336.94;5122243;28;19985;-63
2022/06/28 02:30:49;;;;;;;;;;;;;;;23.36;100.00;98336.25;5123919;28;19935;-64
2022/06/28 02:33:17;;;;;;;;;;;;;;;23.55;100.00;98342.78;5122904;28;19924;-64
2022/06/28 02:41:10;;;;;;;;;;;;;;;23.58;100.00;98358.47;5139813;27;19927;-64
2022/06/28 02:43:37;;;;;;;;;;;;;;;23.63;100.00;98361.00;5120101;28;19931;-64
2022/06/28 02:46:03;;;;;;;;;;;;;;;23.52;100.00;98370.72;5120331;28;19959;-64
2022/06/28 02:48:31;;;;;;;;;;;;;;;23.48;100.00;98369.84;5122982;28;20023;-63
2022/06/28 02:50:57;;;;;;;;;;;;;;;23.58;100.00;98363.16;5125799;27;19931;-64
2022/06/28 02:53:24;;;;;;;;;;;;;;;23.78;100.00;98365.00;5121677;28;19927;-63
2022/06/28 02:55:50;;;;;;;;;;;;;;;23.77;100.00;98360.69;5120099;28;19962;-64
2022/06/28 02:58:16;;;;;;;;;;;;;;;23.59;100.00;98354.63;5120726;28;19935;-64
2022/06/28 03:00:43;;;;;;;;;;;;;;;23.44;100.00;98351.75;5122678;28;19923;-63
2022/06/28 03:03:09;;;;;;;;;;;;;;;23.50;100.00;98345.75;5123229;28;19979;-63
2022/06/28 03:05:37;;;;;;;;;;;;;;;23.29;100.00;98344.97;5119578;28;19924;-63
2022/06/28 03:08:03;;;;;;;;;;;;;;;23.32;100.00;98344.31;5119689;28;19924;-63
2022/06/28 03:10:30;;;;;;;;;;;;;;;23.44;100.00;98352.53;5122262;28;20023;-64
2022/06/28 03:12:56;;;;;;;;;;;;;;;23.34;100.00;98341.22;5123157;28;19951;-64
2022/06/28 03:15:22;;;;;;;;;;;;;;;23.42;100.00;98341.19;5121175;28;19962;-64
2022/06/28 03:17:49;;;;;;;;;;;;;;;23.52;100.00;98343.47;5119430;28;19924;-63
2022/06/28 03:20:15;;;;;;;;;;;;;;;23.55;100.00;98350.97;5122226;27;19924;-63
2022/06/28 03:22:43;;;;;;;;;;;;;;;23.36;100.00;98361.59;5123003;28;19935;-65
2022/06/28 03:25:09;;;;;;;;;;;;;;;23.26;100.00;98364.72;5122953;28;19963;-64
2022/06/28 03:27:36;;;;;;;;;;;;;;;23.17;100.00;98357.75;5110673;28;19924;-63
2022/06/28 03:30:03;;;;;;;;;;;;;;;23.30;100.00;98357.47;5110829;28;19924;-63
2022/06/28 03:32:30;;;;;;;;;;;;;;;23.26;100.00;98362.00;5110883;28;19920;-63
2022/06/28 03:34:56;;;;;;;;;;;;;;;23.30;100.00;98352.03;5111013;28;19988;-64
2022/06/28 03:37:22;;;;;;;;;;;;;;;23.57;100.00;98356.91;5101028;28;19981;-63
2022/06/28 03:39:50;;;;;;;;;;;;;;;23.62;100.00;98351.22;5111053;28;19959;-63
2022/06/28 03:42:16;;;;;;;;;;;;;;;23.60;100.00;98352.72;5120069;28;19924;-64
2022/06/28 03:44:43;;;;;;;;;;;;;;;23.44;100.00;98351.75;5122530;28;19931;-63
2022/06/28 03:47:09;;;;;;;;;;;;;;;23.49;100.00;98352.31;5122539;28;19983;-64
2022/06/28 03:49:35;;;;;;;;;;;;;;;23.61;100.00;98349.63;5118882;28;19931;-63
2022/06/28 03:52:02;;;;;;;;;;;;;;;23.67;100.00;98349.44;5120878;27;19999;-64
2022/06/28 03:54:28;;;;;;;;;;;;;;;23.64;100.00;98351.69;5121226;28;19952;-63
2022/06/28 03:56:56;;;;;;;;;;;;;;;23.64;100.00;98343.50;5122268;28;19976;-64
2022/06/28 03:59:22;;;;;;;;;;;;;;;23.67;100.00;98343.97;5120634;28;20021;-64
2022/06/28 04:01:49;;;;;;;;;;;;;;;23.64;100.00;98345.44;5118600;28;19959;-63
2022/06/28 04:04:15;;;;;;;;;;;;;;;23.58;100.00;98344.84;5118946;28;20015;-63
2022/06/28 04:06:42;;;;;;;;;;;;;;;23.67;100.00;98349.44;5121847;28;19935;-63
2022/06/28 04:09:08;;;;;;;;;;;;;;;23.09;100.00;98343.84;5122181;28;19924;-64
2022/06/28 04:11:34;;;;;;;;;;;;;;;23.32;100.00;98357.13;5118385;28;19931;-64
2022/06/28 04:14:02;;;;;;;;;;;;;;;23.43;100.00;98350.94;5117644;28;20008;-64
2022/06/28 04:16:29;;;;;;;;;;;;;;;23.29;100.00;98353.16;5120798;28;19959;-64
2022/06/28 04:18:55;;;;;;;;;;;;;;;23.38;100.00;98353.06;5121734;28;19966;-64
2022/06/28 04:21:22;;;;;;;;;;;;;;;23.42;100.00;98349.38;5122153;27;19953;-63
2022/06/28 04:23:48;;;;;;;;;;;;;;;23.38;100.00;98351.13;5118063;28;19971;-64
2022/06/28 04:26:14;;;;;;;;;;;;;;;23.07;100.00;98350.78;5118498;28;19924;-63
2022/06/28 04:28:41;;;;;;;;;;;;;;;23.22;100.00;98352.09;5121594;28;19994;-64
2022/06/28 04:31:09;;;;;;;;;;;;;;;23.10;100.00;98353.63;5121548;28;20031;-64
2022/06/28 04:33:36;;;;;;;;;;;;;;;23.21;100.00;98364.13;5117807;28;19924;-65
2022/06/28 04:36:02;;;;;;;;;;;;;;;23.44;100.00;98368.91;5118130;28;20271;-64
2022/06/28 04:38:29;;;;;;;;;;;;;;;23.34;100.00;98366.56;5120317;28;19924;-63
2022/06/28 04:40:56;;;;;;;;;;;;;;;23.52;100.00;98359.06;5121417;28;19923;-63
2022/06/28 04:43:22;;;;;;;;;;;;;;;23.24;100.00;98366.19;5119329;28;19971;-64
2022/06/28 04:45:48;;;;;;;;;;;;;;;22.79;100.00;98364.13;5117784;28;19924;-64
2022/06/28 04:48:16;;;;;;;;;;;;;;;23.06;100.00;98360.06;5118298;28;19955;-64
2022/06/28 04:50:43;;;;;;;;;;;;;;;23.17;100.00;98355.81;5123145;28;19927;-64
2022/06/28 04:53:09;;;;;;;;;;;;;;;23.25;100.00;98354.94;5121259;28;20387;-64
2022/06/28 04:55:35;;;;;;;;;;;;;;;23.18;100.00;98345.72;5117804;28;19962;-64
2022/06/28 04:58:01;;;;;;;;;;;;;;;23.19;100.00;98359.00;5117652;28;19931;-63
2022/06/28 05:00:29;;;;;;;;;;;;;;;23.02;100.00;98367.34;5120040;28;19950;-64
2022/06/28 05:02:55;;;;;;;;;;;;;;;23.04;100.00;98359.63;5121001;28;19973;-64
2022/06/28 05:05:23;;;;;;;;;;;;;;;23.25;100.00;98357.66;5119079;28;19934;-64
2022/06/28 05:07:49;;;;;;;;;;;;;;;23.16;100.00;98362.41;5117318;28;19963;-64
2022/06/28 05:10:16;;;;;;;;;;;;;;;22.98;100.00;98367.19;5118108;28;19924;-63
2022/06/28 05:12:42;;;;;;;;;;;;;;;23.01;100.00;98366.53;5120797;28;20023;-63
2022/06/28 05:15:09;;;;;;;;;;;;;;;22.82;100.00;98363.47;5121043;28;19930;-64
2022/06/28 05:17:35;;;;;;;;;;;;;;;22.87;100.00;98357.03;5117425;28;19924;-64
2022/06/28 05:20:02;;;;;;;;;;;;;;;23.07;100.00;98359.75;5117506;28;19970;-63
2022/06/28 05:22:30;;;;;;;;;;;;;;;23.30;100.00;98352.03;5120128;28;19928;-64
2022/06/28 05:24:56;;;;;;;;;;;;;;;22.68;100.00;98362.16;5123646;28;19973;-63
2022/06/28 05:27:23;;;;;;;;;;;;;;;22.72;100.00;98365.78;5123835;28;19963;-64
2022/06/28 05:29:49;;;;;;;;;;;;;;;22.96;100.00;98369.44;5121780;28;20007;-63
2022/06/28 05:32:15;;;;;;;;;;;;;;;23.06;100.00;98358.16;5122501;28;19924;-64
2022/06/28 05:34:42;;;;;;;;;;;;;;;23.46;100.00;98363.91;5125585;28;19963;-64
2022/06/28 05:37:09;;;;;;;;;;;;;;;23.88;100.00;98364.59;5125515;28;19938;-63
2022/06/28 05:39:36;;;;;;;;;;;;;;;23.40;100.00;98362.53;5121728;28;19999;-63
2022/06/28 05:42:03;;;;;;;;;;;;;;;23.67;100.00;98354.88;5121777;28;19984;-64
2022/06/28 05:44:29;;;;;;;;;;;;;;;23.79;100.00;98352.97;5124114;28;19947;-64
2022/06/28 05:46:55;;;;;;;;;;;;;;;24.14;100.00;98359.63;5124810;28;20001;-65
2022/06/28 05:49:22;;;;;;;;;;;;;;;23.71;100.00;98361.22;5123232;28;20101;-65
2022/06/28 05:51:48;;;;;;;;;;;;;;;24.00;100.00;98370.06;5123439;27;19932;-64
2022/06/28 05:54:14;;;;;;;;;;;;;;;24.24;100.00;98371.22;5121753;28;19982;-64
2022/06/28 05:56:42;;;;;;;;;;;;;;;23.98;100.00;98364.16;5125300;28;19939;-65
2022/06/28 05:59:08;;;;;;;;;;;;;;;24.01;100.00;98355.28;5125122;28;19970;-63
2022/06/28 06:01:35;;;;;;;;;;;;;;;24.17;100.00;98358.94;5121037;28;20019;-64
2022/06/28 06:04:01;;;;;;;;;;;;;;;24.40;100.00;98367.47;5121274;28;19931;-64
2022/06/28 06:06:28;;;;;;;;;;;;;;;24.42;100.00;98372.59;5123354;28;19923;-65
2022/06/28 06:08:54;;;;;;;;;;;;;;;24.47;100.00;98367.72;5124435;28;20490;-64
2022/06/28 06:11:20;;;;;;;;;;;;;;;24.62;100.00;98369.75;5123230;28;19926;-64
2022/06/28 06:13:48;;;;;;;;;;;;;;;24.09;100.00;98367.22;5120956;28;19939;-65
2022/06/28 06:16:14;;;;;;;;;;;;;;;24.33;100.00;98372.72;5121220;28;19924;-64
2022/06/28 06:18:41;;;;;;;;;;;;;;;24.54;100.00;98362.44;5124557;28;19927;-64
2022/06/28 06:21:08;;;;;;;;;;;;;;;24.41;100.00;98371.81;5126821;27;19930;-64
2022/06/28 06:23:34;;;;;;;;;;;;;;;24.52;100.00;98372.13;5121232;28;19939;-64
2022/06/28 06:26:01;;;;;;;;;;;;;;;24.40;100.00;98358.50;5120958;28;19924;-65
2022/06/28 06:28:27;;;;;;;;;;;;;;;24.17;100.00;98369.06;5105164;28;19935;-64
2022/06/28 06:30:55;;;;;;;;;;;;;;;23.97;100.00;98354.38;5124538;28;19951;-64
2022/06/28 06:33:21;;;;;;;;;;;;;;;24.34;100.00;98365.31;5122748;28;19924;-64
2022/06/28 06:35:48;;;;;;;;;;;;;;;24.24;100.00;98369.31;5120104;28;19963;-64
2022/06/28 06:38:14;;;;;;;;;;;;;;;24.28;100.00;98363.97;5121170;28;19928;-64
2022/06/28 06:40:40;;;;;;;;;;;;;;;24.28;100.00;98370.22;5124142;28;20411;-63
2022/06/28 06:43:07;;;;;;;;;;;;;;;24.49;100.00;98354.50;5124317;28;19924;-64
2022/06/28 06:45:33;;;;;;;;;;;;;;;24.35;100.00;98348.63;5121130;28;19959;-63
2022/06/28 06:48:01;;;;;;;;;;;;;;;24.36;100.00;98349.38;5120883;28;20023;-65
2022/06/28 06:50:27;;;;;;;;;;;;;;;24.40;100.00;98350.31;5125043;27;19959;-64
2022/06/28 06:52:53;;;;;;;;;;;;;;;24.14;100.00;98356.09;5123953;28;19924;-64
2022/06/28 06:55:20;;;;;;;;;;;;;;;24.11;100.00;98359.50;5123038;28;20014;-64
2022/06/28 06:57:46;;;;;;;;;;;;;;;24.27;100.00;98363.16;5120640;28;19966;-64
2022/06/28 07:00:13;;;;;;;;;;;;;;;24.46;100.00;98351.66;5120633;28;19931;-63
2022/06/28 07:02:40;;;;;;;;;;;;;;;24.45;100.00;98350.84;5105836;28;19931;-64
2022/06/28 07:05:08;;;;;;;;;;;;;;;24.44;100.00;98352.03;5124054;28;19930;-64
2022/06/28 07:07:34;;;;;;;;;;;;;;;24.16;100.00;98354.66;5120138;28;20315;-64
2022/06/28 07:10:02;;;;;;;;;;;;;;;24.21;100.00;98348.16;5101994;28;19974;-64
2022/06/28 07:12:29;;;;;;;;;;;;;;;24.36;100.00;98344.72;5122456;28;19924;-65
2022/06/28 07:14:55;;;;;;;;;;;;;;;24.51;100.00;98363.13;5123637;28;19947;-64
2022/06/28 07:17:21;;;;;;;;;;;;;;;23.96;100.00;98366.41;5122054;28;20033;-63
2022/06/28 07:19:48;;;;;;;;;;;;;;;23.97;100.00;98365.28;5120048;28;19924;-64
2022/06/28 07:22:15;;;;;;;;;;;;;;;24.19;100.00;98372.25;5122851;27;19932;-64
2022/06/28 07:24:42;;;;;;;;;;;;;;;24.11;100.00;98379.41;5123471;28;19951;-64
2022/06/28 07:27:08;;;;;;;;;;;;;;;24.00;100.00;98372.78;5123333;28;19970;-63
2022/06/28 07:29:35;;;;;;;;;;;;;;;24.31;100.00;98375.00;5119928;28;19950;-64
2022/06/28 07:32:01;;;;;;;;;;;;;;;23.88;100.00;98370.03;5119992;28;19928;-65
2022/06/28 07:34:27;;;;;;;;;;;;;;;24.21;100.00;98371.91;5121876;28;19924;-64
2022/06/28 07:36:54;;;;;;;;;;;;;;;24.46;100.00;98382.50;5123075;28;19945;-64
2022/06/28 07:39:21;;;;;;;;;;;;;;;24.17;100.00;98388.16;5122220;28;19931;-64
2022/06/28 07:41:48;;;;;;;;;;;;;;;24.45;100.00;98385.59;5119952;28;19924;-64
2022/06/28 07:44:14;;;;;;;;;;;;;;;24.48;100.00;98377.47;5120144;28;20458;-65
2022/06/28 07:46:40;;;;;;;;;;;;;;;24.41;100.00;98377.28;5122551;28;19962;-65
2022/06/28 07:49:07;;;;;;;;;;;;;;;24.67;100.00;98377.69;5122785;28;19924;-65
2022/06/28 07:54:17;;;;;;;;;;;;;;;24.15;100.00;98366.69;5119862;28;19947;-69
2022/06/28 07:56:44;;;;;;;;;;;;;;;23.98;100.00;98364.16;5123152;28;19931;-64
2022/06/28 07:59:11;;;;;;;;;;;;;;;24.22;100.00;98360.66;5123083;28;19947;-65
2022/06/28 08:01:37;;;;;;;;;;;;;;;24.22;100.00;98363.41;5110867;28;19959;-65
2022/06/28 08:04:03;;;;;;;;;;;;;;;24.09;100.00;98367.22;5110745;28;19990;-64
2022/06/28 08:06:30;;;;;;;;;;;;;;;24.07;100.00;98364.03;5110575;28;19924;-65
2022/06/28 08:08:56;;;;;;;;;;;;;;;23.96;100.00;98362.88;5110988;28;19955;-64
2022/06/28 08:11:23;;;;;;;;;;;;;;;24.00;100.00;98361.88;5110752;28;19951;-64
2022/06/28 08:13:52;;;;;;;;;;;;;;;24.03;100.00;98354.94;5110794;28;19947;-65
2022/06/28 08:16:18;;;;;;;;;;;;;;;24.14;100.00;98367.00;5110659;28;19932;-64
2022/06/28 08:18:45;;;;;;;;;;;;;;;24.25;100.00;98359.19;5110435;28;19987;-64
2022/06/28 08:21:11;;;;;;;;;;;;;;;24.23;100.00;98361.47;5121443;27;19923;-64
2022/06/28 08:23:37;;;;;;;;;;;;;;;24.20;100.00;98362.94;5110490;28;19931;-64
2022/06/28 08:26:04;;;;;;;;;;;;;;;24.14;100.00;98369.75;5110396;28;19967;-64
2022/06/28 08:28:30;;;;;;;;;;;;;;;24.02;100.00;98364.25;5110427;28;19920;-65
2022/06/28 08:30:58;;;;;;;;;;;;;;;24.15;100.00;98368.63;5110292;28;19959;-64
2022/06/28 08:33:24;;;;;;;;;;;;;;;24.33;100.00;98348.13;5110097;28;19928;-65
2022/06/28 08:35:51;;;;;;;;;;;;;;;24.26;100.00;98347.94;5110407;28;19987;-64
2022/06/28 08:38:17;;;;;;;;;;;;;;;24.45;100.00;98364.50;5110253;28;19946;-64
2022/06/28 08:40:44;;;;;;;;;;;;;;;24.39;100.00;98356.88;5110184;28;19996;-64
2022/06/28 08:43:10;;;;;;;;;;;;;;;24.41;100.00;98354.63;5110303;28;19920;-64
2022/06/28 08:45:37;;;;;;;;;;;;;;;24.36;100.00;98352.13;5118518;28;19924;-64
2022/06/28 08:48:08;;;;;;;;;;;;;;;24.27;100.00;98351.44;5118807;28;19924;-65
2022/06/28 08:50:35;;;;;;;;;;;;;;;24.46;100.00;98359.84;5124247;28;20054;-64
2022/06/28 08:53:02;;;;;;;;;;;;;;;24.77;100.00;98357.31;5122281;28;19975;-66
2022/06/28 08:55:29;;;;;;;;;;;;;;;25.07;100.00;98357.81;5119264;28;19930;-64
2022/06/28 08:57:57;;;;;;;;;;;;;;;24.77;100.00;98368.22;5118550;28;19924;-64
2022/06/28 09:00:23;;;;;;;;;;;;;;;24.49;100.00;98365.44;5120074;28;19935;-65
2022/06/28 09:02:50;;;;;;;;;;;;;;;24.07;100.00;98370.31;5122207;28;19924;-66
2022/06/28 09:05:19;;;;;;;;;;;;;;;24.27;100.00;98371.34;5121245;28;19954;-65
2022/06/28 09:07:45;;;;;;;;;;;;;;;24.41;100.00;98374.53;5118364;28;19924;-66
2022/06/28 09:10:14;;;;;;;;;;;;;;;24.53;100.00;98369.06;5117917;28;20397;-65
2022/06/28 09:12:40;;;;;;;;;;;;;;;24.51;100.00;98379.53;5122072;28;20037;-64
2022/06/28 09:15:07;;;;;;;;;;;;;;;24.63;100.00;98368.59;5121567;28;19971;-65
2022/06/28 09:17:34;;;;;;;;;;;;;;;24.46;100.00;98362.59;5118461;28;19957;-64
2022/06/28 09:20:02;;;;;;;;;;;;;;;24.30;100.00;98343.38;5118241;28;19924;-64
2022/06/28 09:22:33;;;;;;;;;;;;;;;24.67;100.00;98355.03;5120501;28;19924;-64
2022/06/28 09:25:00;;;;;;;;;;;;;;;24.60;100.00;98360.31;5121550;28;19928;-65
2022/06/28 09:27:30;;;;;;;;;;;;;;;24.82;100.00;98361.78;5119379;28;20454;-65
2022/06/28 09:29:57;;;;;;;;;;;;;;;25.05;100.00;98363.63;5118154;28;19951;-65
2022/06/28 09:32:28;;;;;;;;;;;;;;;25.22;100.00;98363.34;5119645;28;19955;-63
2022/06/28 09:34:55;;;;;;;;;;;;;;;25.25;100.00;98356.41;5121438;28;19924;-64
2022/06/28 09:37:33;;;;;;;;;;;;;;;25.06;100.00;98353.50;5120003;28;19924;-65
2022/06/28 09:40:08;;;;;;;;;;;;;;;24.94;100.00;98359.00;5118006;28;19925;-63
2022/06/28 09:42:35;;;;;;;;;;;;;;;25.01;100.00;98353.72;5121049;28;20037;-65
2022/06/28 09:45:01;;;;;;;;;;;;;;;25.13;100.00;98351.75;5121740;28;19939;-64
2022/06/28 09:47:27;;;;;;;;;;;;;;;25.24;100.00;98352.06;5118976;28;19924;-65
2022/06/28 09:49:54;;;;;;;;;;;;;;;25.43;100.00;98349.47;5117654;28;19928;-64
2022/06/28 09:52:23;;;;;;;;;;;;;;;25.25;100.00;98348.97;5121396;28;19930;-65
2022/06/28 09:54:54;;;;;;;;;;;;;;;25.19;96.59;98338.66;5121243;28;19958;-65
2022/06/28 09:57:21;;;;;;;;;;;;;;;25.13;92.42;98338.09;5119730;28;19996;-65
2022/06/28 09:59:50;;;;;;;;;;;;;;;25.14;94.80;98325.22;5117764;28;19967;-64
2022/06/28 10:02:17;;;;;;;;;;;;;;;25.00;95.05;98309.25;5118519;28;19928;-64
2022/06/28 10:04:44;;;;;;;;;;;;;;;24.99;97.58;98307.63;5120996;28;19980;-64
2022/06/28 10:07:11;;;;;;;;;;;;;;;25.25;94.33;98304.47;5121388;28;19950;-64
2022/06/28 10:09:38;;;;;;;;;;;;;;;25.00;94.89;98292.03;5109326;28;20002;-64
2022/06/28 10:15:04;;;;;;;;;;;;;;;25.20;92.30;98282.84;5113269;28;19970;-64
2022/06/28 10:17:48;;;;;;;;;;;;;;;25.39;90.75;98288.44;5112872;28;19931;-64
2022/06/28 10:20:17;;;;;;;;;;;;;;;25.14;90.91;98289.69;5115986;27;19924;-66
2022/06/28 10:22:44;;;;;;;;;;;;;;;24.74;96.76;98292.44;5124724;28;19924;-64
2022/06/28 10:25:14;;;;;;;;;;;;;;;25.16;96.71;98279.22;5124756;28;19930;-64
2022/06/28 10:27:45;;;;;;;;;;;;;;;25.31;97.11;98277.66;5121206;28;19946;-66
2022/06/28 10:30:18;;;;;;;;;;;;;;;25.34;97.88;98266.03;5121161;28;19978;-64
2022/06/28 10:32:45;;;;;;;;;;;;;;;25.57;92.99;98267.03;5120736;28;20019;-64
2022/06/28 10:35:36;;;;;;;;;;;;;;;25.57;91.83;98269.75;5121086;28;20368;-66
2022/06/28 10:38:20;;;;;;;;;;;;;;;25.83;86.78;98264.56;5124464;28;19930;-64
2022/06/28 10:40:49;;;;;;;;;;;;;;;25.66;88.09;98268.44;5112314;28;19924;-65
2022/06/28 10:43:36;;;;;;;;;;;;;;;25.60;90.83;98267.13;5112363;28;19924;-66
2022/06/28 10:46:07;;;;;;;;;;;;;;;28.23;87.62;98258.41;5112161;28;19925;-65
2022/06/28 10:48:54;;;;;;;;;;;;;;;28.24;81.72;98259.19;5112058;28;19928;-64
2022/06/28 10:51:20;;;;;;;;;;;;;;;27.27;81.50;98255.97;5122908;27;19950;-64
2022/06/28 10:54:01;;;;;;;;;;;;;;;26.64;85.82;98255.50;5120512;28;20014;-65
2022/06/28 10:56:28;;;;;;;;;;;;;;;26.23;89.08;98253.41;5122680;28;19927;-65
2022/06/28 10:58:57;;;;;;;;;;;;;;;25.93;91.02;98249.56;5124058;28;19962;-66
2022/06/28 11:01:38;;;;;;;;;;;;;;;25.80;93.57;98253.53;5122164;28;20287;-64
2022/06/28 11:04:09;;;;;;;;;;;;;;;25.89;93.62;98256.88;5119629;28;19924;-64
2022/06/28 11:06:39;;;;;;;;;;;;;;;25.90;90.17;98244.78;5123271;28;19932;-65
2022/06/28 11:09:08;;;;;;;;;;;;;;;25.84;89.93;98235.28;5123616;28;19924;-65
2022/06/28 11:11:34;;;;;;;;;;;;;;;25.92;93.16;98234.28;5120736;28;19979;-65
2022/06/28 11:14:20;;;;;;;;;;;;;;;25.81;90.96;98222.31;5120373;28;19992;-64
2022/06/28 11:16:47;;;;;;;;;;;;;;;26.36;88.25;98222.03;5119908;28;19979;-66
2022/06/28 11:19:14;;;;;;;;;;;;;;;26.40;86.63;98206.44;5120177;28;19959;-64
2022/06/28 11:21:41;;;;;;;;;;;;;;;26.15;84.78;98216.06;5128918;27;20658;-65
2022/06/28 11:24:08;;;;;;;;;;;;;;;26.26;86.53;98200.69;5120019;28;19935;-64
2022/06/28 11:29:19;;;;;;;;;;;;;;;26.40;85.91;98200.19;5122047;28;20015;-65
2022/06/28 11:31:45;;;;;;;;;;;;;;;26.40;82.09;98189.25;5101085;28;19983;-65
2022/06/28 11:34:13;;;;;;;;;;;;;;;26.24;86.06;98189.31;5119338;28;19930;-67
2022/06/28 11:36:44;;;;;;;;;;;;;;;26.19;81.56;98193.09;5111451;28;19959;-67
2022/06/28 11:39:17;;;;;;;;;;;;;;;25.75;83.20;98197.13;5111370;28;19967;-69
2022/06/28 11:41:47;;;;;;;;;;;;;;;25.77;83.51;98184.72;5115549;28;19923;-64
2022/06/28 11:44:14;;;;;;;;;;;;;;;25.75;86.29;98172.50;5123015;28;19931;-63
2022/06/28 11:46:40;;;;;;;;;;;;;;;25.95;85.06;98168.69;5119472;28;19924;-65
2022/06/28 11:49:07;;;;;;;;;;;;;;;25.90;85.88;98177.19;5119119;28;20480;-65
2022/06/28 11:51:34;;;;;;;;;;;;;;;25.58;83.96;98165.50;5128856;27;19928;-64
2022/06/28 11:54:05;;;;;;;;;;;;;;;25.63;86.93;98173.41;5119234;28;19971;-63
2022/06/28 11:56:41;;;;;;;;;;;;;;;25.85;84.47;98162.97;5121770;28;19927;-64
2022/06/28 11:59:08;;;;;;;;;;;;;;;26.00;86.49;98165.66;5122913;28;19934;-65
2022/06/28 12:01:37;;;;;;;;;;;;;;;26.11;88.72;98174.13;5119724;28;19955;-64
2022/06/28 12:04:06;;;;;;;;;;;;;;;26.07;90.20;98171.31;5118923;28;19924;-64
2022/06/28 12:06:33;;;;;;;;;;;;;;;26.14;90.91;98170.66;5121460;28;19970;-64
2022/06/28 12:09:02;;;;;;;;;;;;;;;26.01;89.77;98172.72;5122132;28;19930;-64
2022/06/28 12:11:29;;;;;;;;;;;;;;;26.15;89.25;98184.00;5119736;28;19935;-65
2022/06/28 12:13:57;;;;;;;;;;;;;;;25.97;92.58;98192.94;5118671;28;19920;-63
2022/06/28 12:16:23;;;;;;;;;;;;;;;26.07;91.38;98186.94;5120054;28;20019;-65
2022/06/28 12:18:53;;;;;;;;;;;;;;;25.97;90.60;98182.78;5121921;28;19931;-64
2022/06/28 12:21:19;;;;;;;;;;;;;;;25.88;92.02;98181.41;5123203;27;19951;-62
2022/06/28 12:23:49;;;;;;;;;;;;;;;25.95;93.43;98192.53;5118304;28;19924;-63
2022/06/28 12:26:17;;;;;;;;;;;;;;;26.00;93.19;98203.19;5118712;28;19924;-63
2022/06/28 12:28:43;;;;;;;;;;;;;;;26.16;91.84;98190.28;5122312;28;19967;-63
2022/06/28 12:31:10;;;;;;;;;;;;;;;26.10;92.93;98192.47;5122151;28;19996;-63
2022/06/28 12:33:36;;;;;;;;;;;;;;;26.10;93.24;98183.47;5117594;28;20010;-63
2022/06/28 12:36:02;;;;;;;;;;;;;;;26.06;93.26;98174.38;5118122;28;19943;-63
2022/06/28 12:38:29;;;;;;;;;;;;;;;26.12;94.51;98179.22;5120666;28;19928;-65
2022/06/28 12:40:56;;;;;;;;;;;;;;;26.13;92.06;98175.34;5121662;28;19934;-66
2022/06/28 12:43:24;;;;;;;;;;;;;;;26.25;89.85;98185.41;5120028;28;19924;-69
2022/06/28 12:45:50;;;;;;;;;;;;;;;26.33;90.87;98176.19;5118690;28;19932;-68
2022/06/28 12:48:17;;;;;;;;;;;;;;;26.21;91.06;98170.84;5118610;28;19950;-67
2022/06/28 12:50:43;;;;;;;;;;;;;;;26.18;90.94;98166.09;5123993;27;19934;-68
2022/06/28 12:53:09;;;;;;;;;;;;;;;26.11;89.54;98160.44;5121531;28;19934;-67